sensor_id;sensor_type;location;lat;lon;timestamp;P1;durP1;ratioP1;P2;durP2;ratioP2
3321;SDS011;1673;51.388;7.086;2022-09-17T00:00:16;13.50;;;3.80;;
3321;SDS011;1673;51.388;7.086;2022-09-17T00:02:48;15.45;;;4.13;;
3321;SDS011;1673;51.388;7.086;2022-09-17T00:05:23;13.40;;;3.17;;
3321;SDS011;1673;51.388;7.086;2022-09-17T00:07:53;13.93;;;3.50;;
3321;SDS011;1673;51.388;7.086;2022-09-17T00:10:23;17.60;;;3.23;;
3321;SDS011;1673;51.388;7.086;2022-09-17T00:12:53;18.73;;;3.57;;
3321;SDS011;1673;51.388;7.086;2022-09-17T00:15:23;11.00;;;2.73;;
3321;SDS011;1673;51.388;7.086;2022-09-17T00:17:53;14.30;;;3.80;;
3321;SDS011;1673;51.388;7.086;2022-09-17T00:20:26;9.60;;;3.17;;
3321;SDS011;1673;51.388;7.086;2022-09-17T00:22:56;25.47;;;3.93;;
3321;SDS011;1673;51.388;7.086;2022-09-17T00:25:25;14.10;;;4.18;;
3321;SDS011;1673;51.388;7.086;2022-09-17T00:27:55;15.10;;;3.72;;
3321;SDS011;1673;51.388;7.086;2022-09-17T00:30:24;16.15;;;3.90;;
3321;SDS011;1673;51.388;7.086;2022-09-17T00:32:54;14.52;;;3.63;;
3321;SDS011;1673;51.388;7.086;2022-09-17T00:35:26;14.25;;;4.10;;
3321;SDS011;1673;51.388;7.086;2022-09-17T00:37:56;22.47;;;5.30;;
3321;SDS011;1673;51.388;7.086;2022-09-17T00:40:25;15.73;;;4.13;;
3321;SDS011;1673;51.388;7.086;2022-09-17T00:42:55;16.97;;;4.53;;
3321;SDS011;1673;51.388;7.086;2022-09-17T00:45:25;18.63;;;4.25;;
3321;SDS011;1673;51.388;7.086;2022-09-17T00:47:56;14.02;;;4.00;;
3321;SDS011;1673;51.388;7.086;2022-09-17T00:50:30;16.80;;;3.95;;
3321;SDS011;1673;51.388;7.086;2022-09-17T00:53:03;13.73;;;4.35;;
3321;SDS011;1673;51.388;7.086;2022-09-17T00:55:36;18.30;;;4.30;;
3321;SDS011;1673;51.388;7.086;2022-09-17T00:58:08;19.10;;;5.38;;
3321;SDS011;1673;51.388;7.086;2022-09-17T01:00:39;13.98;;;4.80;;
3321;SDS011;1673;51.388;7.086;2022-09-17T01:03:11;22.38;;;4.57;;
3321;SDS011;1673;51.388;7.086;2022-09-17T01:05:45;14.15;;;4.55;;
3321;SDS011;1673;51.388;7.086;2022-09-17T01:08:20;14.55;;;4.57;;
3321;SDS011;1673;51.388;7.086;2022-09-17T01:10:59;16.50;;;5.03;;
3321;SDS011;1673;51.388;7.086;2022-09-17T01:13:51;11.48;;;5.18;;
3321;SDS011;1673;51.388;7.086;2022-09-17T01:16:27;15.73;;;5.70;;
3321;SDS011;1673;51.388;7.086;2022-09-17T01:19:03;17.85;;;5.35;;
3321;SDS011;1673;51.388;7.086;2022-09-17T01:21:53;22.33;;;5.20;;
3321;SDS011;1673;51.388;7.086;2022-09-17T01:24:43;14.45;;;5.05;;
3321;SDS011;1673;51.388;7.086;2022-09-17T01:27:21;17.23;;;5.53;;
3321;SDS011;1673;51.388;7.086;2022-09-17T01:30:18;18.05;;;5.60;;
3321;SDS011;1673;51.388;7.086;2022-09-17T01:33:12;19.60;;;5.70;;
3321;SDS011;1673;51.388;7.086;2022-09-17T01:35:47;15.13;;;4.30;;
3321;SDS011;1673;51.388;7.086;2022-09-17T01:38:22;15.48;;;4.63;;
3321;SDS011;1673;51.388;7.086;2022-09-17T01:40:55;14.85;;;4.22;;
3321;SDS011;1673;51.388;7.086;2022-09-17T01:43:29;17.25;;;4.68;;
3321;SDS011;1673;51.388;7.086;2022-09-17T01:46:02;21.65;;;5.20;;
3321;SDS011;1673;51.388;7.086;2022-09-17T01:48:44;17.50;;;4.50;;
3321;SDS011;1673;51.388;7.086;2022-09-17T01:51:16;19.00;;;5.50;;
3321;SDS011;1673;51.388;7.086;2022-09-17T01:53:49;20.10;;;4.78;;
3321;SDS011;1673;51.388;7.086;2022-09-17T01:56:24;18.98;;;4.40;;
3321;SDS011;1673;51.388;7.086;2022-09-17T01:58:57;16.93;;;4.50;;
3321;SDS011;1673;51.388;7.086;2022-09-17T02:01:30;21.08;;;4.50;;
3321;SDS011;1673;51.388;7.086;2022-09-17T02:04:04;14.65;;;4.60;;
3321;SDS011;1673;51.388;7.086;2022-09-17T02:06:37;13.80;;;4.65;;
3321;SDS011;1673;51.388;7.086;2022-09-17T02:09:10;12.68;;;4.55;;
3321;SDS011;1673;51.388;7.086;2022-09-17T02:11:44;15.82;;;4.00;;
3321;SDS011;1673;51.388;7.086;2022-09-17T02:14:18;16.17;;;4.80;;
3321;SDS011;1673;51.388;7.086;2022-09-17T02:16:49;17.70;;;6.03;;
3321;SDS011;1673;51.388;7.086;2022-09-17T02:19:25;21.08;;;5.07;;
3321;SDS011;1673;51.388;7.086;2022-09-17T02:21:58;25.05;;;4.93;;
3321;SDS011;1673;51.388;7.086;2022-09-17T02:24:31;14.77;;;5.00;;
3321;SDS011;1673;51.388;7.086;2022-09-17T02:27:04;16.05;;;4.57;;
3321;SDS011;1673;51.388;7.086;2022-09-17T02:29:36;17.00;;;5.57;;
3321;SDS011;1673;51.388;7.086;2022-09-17T02:32:08;16.23;;;4.80;;
3321;SDS011;1673;51.388;7.086;2022-09-17T02:34:41;23.73;;;5.18;;
3321;SDS011;1673;51.388;7.086;2022-09-17T02:37:10;23.60;;;6.28;;
3321;SDS011;1673;51.388;7.086;2022-09-17T02:39:40;17.85;;;4.72;;
3321;SDS011;1673;51.388;7.086;2022-09-17T02:42:13;23.42;;;4.80;;
3321;SDS011;1673;51.388;7.086;2022-09-17T02:44:53;20.73;;;4.70;;
3321;SDS011;1673;51.388;7.086;2022-09-17T02:47:32;14.03;;;4.60;;
3321;SDS011;1673;51.388;7.086;2022-09-17T02:50:13;21.02;;;5.00;;
3321;SDS011;1673;51.388;7.086;2022-09-17T02:52:51;17.40;;;4.68;;
3321;SDS011;1673;51.388;7.086;2022-09-17T02:55:28;14.90;;;3.85;;
3321;SDS011;1673;51.388;7.086;2022-09-17T02:58:03;18.30;;;4.40;;
3321;SDS011;1673;51.388;7.086;2022-09-17T03:00:38;18.17;;;4.15;;
3321;SDS011;1673;51.388;7.086;2022-09-17T03:03:09;25.77;;;4.88;;
3321;SDS011;1673;51.388;7.086;2022-09-17T03:05:43;27.52;;;4.22;;
3321;SDS011;1673;51.388;7.086;2022-09-17T03:08:13;20.02;;;4.47;;
3321;SDS011;1673;51.388;7.086;2022-09-17T03:10:45;17.85;;;4.10;;
3321;SDS011;1673;51.388;7.086;2022-09-17T03:13:15;18.42;;;4.32;;
3321;SDS011;1673;51.388;7.086;2022-09-17T03:15:45;25.60;;;4.95;;
3321;SDS011;1673;51.388;7.086;2022-09-17T03:18:15;19.95;;;3.90;;
3321;SDS011;1673;51.388;7.086;2022-09-17T03:20:47;14.98;;;3.15;;
3321;SDS011;1673;51.388;7.086;2022-09-17T03:23:17;21.30;;;5.20;;
3321;SDS011;1673;51.388;7.086;2022-09-17T03:25:46;14.13;;;3.85;;
3321;SDS011;1673;51.388;7.086;2022-09-17T03:28:17;14.50;;;3.60;;
3321;SDS011;1673;51.388;7.086;2022-09-17T03:30:47;19.02;;;4.15;;
3321;SDS011;1673;51.388;7.086;2022-09-17T03:33:16;15.63;;;3.78;;
3321;SDS011;1673;51.388;7.086;2022-09-17T03:35:48;19.73;;;3.90;;
3321;SDS011;1673;51.388;7.086;2022-09-17T03:38:18;15.95;;;3.80;;
3321;SDS011;1673;51.388;7.086;2022-09-17T03:40:55;13.90;;;3.10;;
3321;SDS011;1673;51.388;7.086;2022-09-17T03:43:25;18.88;;;4.03;;
3321;SDS011;1673;51.388;7.086;2022-09-17T03:45:55;20.00;;;3.70;;
3321;SDS011;1673;51.388;7.086;2022-09-17T03:48:25;18.00;;;3.85;;
3321;SDS011;1673;51.388;7.086;2022-09-17T03:50:58;18.08;;;3.70;;
3321;SDS011;1673;51.388;7.086;2022-09-17T03:53:28;17.15;;;3.47;;
3321;SDS011;1673;51.388;7.086;2022-09-17T03:55:57;18.65;;;4.10;;
3321;SDS011;1673;51.388;7.086;2022-09-17T03:58:27;13.60;;;3.00;;
3321;SDS011;1673;51.388;7.086;2022-09-17T04:00:58;12.73;;;3.08;;
3321;SDS011;1673;51.388;7.086;2022-09-17T04:03:28;20.08;;;3.50;;
3321;SDS011;1673;51.388;7.086;2022-09-17T04:06:01;20.88;;;3.40;;
3321;SDS011;1673;51.388;7.086;2022-09-17T04:08:31;20.52;;;3.40;;
3321;SDS011;1673;51.388;7.086;2022-09-17T04:11:02;12.45;;;3.35;;
3321;SDS011;1673;51.388;7.086;2022-09-17T04:13:33;16.90;;;3.70;;
3321;SDS011;1673;51.388;7.086;2022-09-17T04:16:03;12.70;;;3.10;;
3321;SDS011;1673;51.388;7.086;2022-09-17T04:18:32;13.18;;;3.35;;
3321;SDS011;1673;51.388;7.086;2022-09-17T04:21:05;25.45;;;4.50;;
3321;SDS011;1673;51.388;7.086;2022-09-17T04:23:35;12.60;;;3.58;;
3321;SDS011;1673;51.388;7.086;2022-09-17T04:26:04;17.83;;;3.45;;
3321;SDS011;1673;51.388;7.086;2022-09-17T04:28:34;17.50;;;3.20;;
3321;SDS011;1673;51.388;7.086;2022-09-17T04:31:03;13.80;;;2.90;;
3321;SDS011;1673;51.388;7.086;2022-09-17T04:33:33;13.68;;;3.10;;
3321;SDS011;1673;51.388;7.086;2022-09-17T04:36:06;12.73;;;3.40;;
3321;SDS011;1673;51.388;7.086;2022-09-17T04:38:35;11.98;;;3.05;;
3321;SDS011;1673;51.388;7.086;2022-09-17T04:41:05;16.05;;;3.30;;
3321;SDS011;1673;51.388;7.086;2022-09-17T04:43:35;15.65;;;2.92;;
3321;SDS011;1673;51.388;7.086;2022-09-17T04:46:05;18.17;;;3.30;;
3321;SDS011;1673;51.388;7.086;2022-09-17T04:48:34;14.93;;;4.35;;
3321;SDS011;1673;51.388;7.086;2022-09-17T04:51:07;14.88;;;3.63;;
3321;SDS011;1673;51.388;7.086;2022-09-17T04:53:36;11.13;;;3.90;;
3321;SDS011;1673;51.388;7.086;2022-09-17T04:56:06;19.30;;;3.10;;
3321;SDS011;1673;51.388;7.086;2022-09-17T04:58:36;20.40;;;3.60;;
3321;SDS011;1673;51.388;7.086;2022-09-17T05:01:05;19.52;;;4.30;;
3321;SDS011;1673;51.388;7.086;2022-09-17T05:03:36;19.02;;;3.20;;
3321;SDS011;1673;51.388;7.086;2022-09-17T05:06:08;12.65;;;3.00;;
3321;SDS011;1673;51.388;7.086;2022-09-17T05:08:38;20.43;;;3.90;;
3321;SDS011;1673;51.388;7.086;2022-09-17T05:11:08;23.15;;;3.90;;
3321;SDS011;1673;51.388;7.086;2022-09-17T05:13:37;15.52;;;3.30;;
3321;SDS011;1673;51.388;7.086;2022-09-17T05:16:07;18.15;;;3.50;;
3321;SDS011;1673;51.388;7.086;2022-09-17T05:18:37;16.65;;;3.88;;
3321;SDS011;1673;51.388;7.086;2022-09-17T05:21:09;15.23;;;3.38;;
3321;SDS011;1673;51.388;7.086;2022-09-17T05:23:39;18.63;;;4.50;;
3321;SDS011;1673;51.388;7.086;2022-09-17T05:26:09;17.55;;;3.80;;
3321;SDS011;1673;51.388;7.086;2022-09-17T05:28:39;18.65;;;3.33;;
3321;SDS011;1673;51.388;7.086;2022-09-17T05:31:08;15.75;;;3.40;;
3321;SDS011;1673;51.388;7.086;2022-09-17T05:33:39;16.75;;;4.13;;
3321;SDS011;1673;51.388;7.086;2022-09-17T05:36:11;15.57;;;3.83;;
3321;SDS011;1673;51.388;7.086;2022-09-17T05:38:40;17.52;;;3.20;;
3321;SDS011;1673;51.388;7.086;2022-09-17T05:41:10;24.00;;;3.80;;
3321;SDS011;1673;51.388;7.086;2022-09-17T05:43:41;17.50;;;3.47;;
3321;SDS011;1673;51.388;7.086;2022-09-17T05:46:11;11.25;;;3.00;;
3321;SDS011;1673;51.388;7.086;2022-09-17T05:48:41;12.37;;;2.83;;
3321;SDS011;1673;51.388;7.086;2022-09-17T05:51:14;16.73;;;2.90;;
3321;SDS011;1673;51.388;7.086;2022-09-17T05:53:44;13.80;;;3.20;;
3321;SDS011;1673;51.388;7.086;2022-09-17T05:56:14;16.63;;;4.07;;
3321;SDS011;1673;51.388;7.086;2022-09-17T05:58:44;11.93;;;3.00;;
3321;SDS011;1673;51.388;7.086;2022-09-17T06:01:14;12.48;;;2.85;;
3321;SDS011;1673;51.388;7.086;2022-09-17T06:18:12;10.95;;;3.00;;
3321;SDS011;1673;51.388;7.086;2022-09-17T06:20:42;15.83;;;2.70;;
3321;SDS011;1673;51.388;7.086;2022-09-17T06:23:12;15.90;;;2.90;;
3321;SDS011;1673;51.388;7.086;2022-09-17T06:25:41;21.37;;;3.30;;
3321;SDS011;1673;51.388;7.086;2022-09-17T06:28:11;17.17;;;3.20;;
3321;SDS011;1673;51.388;7.086;2022-09-17T06:30:40;9.35;;;2.63;;
3321;SDS011;1673;51.388;7.086;2022-09-17T06:33:13;17.23;;;2.90;;
3321;SDS011;1673;51.388;7.086;2022-09-17T06:35:42;14.13;;;2.50;;
3321;SDS011;1673;51.388;7.086;2022-09-17T06:38:12;14.40;;;2.20;;
3321;SDS011;1673;51.388;7.086;2022-09-17T06:40:42;15.13;;;2.97;;
3321;SDS011;1673;51.388;7.086;2022-09-17T06:43:12;16.40;;;3.30;;
3321;SDS011;1673;51.388;7.086;2022-09-17T06:45:41;13.00;;;2.58;;
3321;SDS011;1673;51.388;7.086;2022-09-17T06:48:13;10.20;;;2.67;;
3321;SDS011;1673;51.388;7.086;2022-09-17T06:50:43;13.70;;;2.90;;
3321;SDS011;1673;51.388;7.086;2022-09-17T06:53:14;15.38;;;2.55;;
3321;SDS011;1673;51.388;7.086;2022-09-17T06:55:45;14.10;;;2.75;;
3321;SDS011;1673;51.388;7.086;2022-09-17T06:58:15;14.83;;;2.73;;
3321;SDS011;1673;51.388;7.086;2022-09-17T07:00:44;20.48;;;3.20;;
3321;SDS011;1673;51.388;7.086;2022-09-17T07:03:17;20.47;;;3.00;;
3321;SDS011;1673;51.388;7.086;2022-09-17T07:05:48;11.48;;;3.00;;
3321;SDS011;1673;51.388;7.086;2022-09-17T07:08:18;15.23;;;2.63;;
3321;SDS011;1673;51.388;7.086;2022-09-17T07:10:48;16.17;;;3.00;;
3321;SDS011;1673;51.388;7.086;2022-09-17T07:13:17;13.85;;;3.10;;
3321;SDS011;1673;51.388;7.086;2022-09-17T07:15:51;30.70;;;3.60;;
3321;SDS011;1673;51.388;7.086;2022-09-17T07:18:24;15.27;;;3.35;;
3321;SDS011;1673;51.388;7.086;2022-09-17T07:20:54;12.13;;;3.10;;
3321;SDS011;1673;51.388;7.086;2022-09-17T07:23:25;11.82;;;3.33;;
3321;SDS011;1673;51.388;7.086;2022-09-17T07:25:55;12.90;;;3.20;;
3321;SDS011;1673;51.388;7.086;2022-09-17T07:28:26;15.43;;;2.90;;
3321;SDS011;1673;51.388;7.086;2022-09-17T07:30:56;26.20;;;3.50;;
3321;SDS011;1673;51.388;7.086;2022-09-17T07:33:29;16.15;;;3.10;;
3321;SDS011;1673;51.388;7.086;2022-09-17T07:35:59;13.77;;;3.28;;
3321;SDS011;1673;51.388;7.086;2022-09-17T07:38:30;18.52;;;3.80;;
3321;SDS011;1673;51.388;7.086;2022-09-17T07:41:01;16.63;;;3.53;;
3321;SDS011;1673;51.388;7.086;2022-09-17T07:43:32;17.23;;;4.13;;
3321;SDS011;1673;51.388;7.086;2022-09-17T07:46:03;15.02;;;3.58;;
3321;SDS011;1673;51.388;7.086;2022-09-17T07:48:36;20.48;;;3.63;;
3321;SDS011;1673;51.388;7.086;2022-09-17T07:51:06;17.15;;;3.45;;
3321;SDS011;1673;51.388;7.086;2022-09-17T07:53:36;9.27;;;3.35;;
3321;SDS011;1673;51.388;7.086;2022-09-17T07:56:06;11.25;;;2.92;;
3321;SDS011;1673;51.388;7.086;2022-09-17T07:58:37;17.53;;;3.80;;
3321;SDS011;1673;51.388;7.086;2022-09-17T08:01:08;20.05;;;3.30;;
3321;SDS011;1673;51.388;7.086;2022-09-17T08:03:42;13.40;;;4.17;;
3321;SDS011;1673;51.388;7.086;2022-09-17T08:06:13;13.10;;;3.88;;
3321;SDS011;1673;51.388;7.086;2022-09-17T08:08:43;14.77;;;3.42;;
3321;SDS011;1673;51.388;7.086;2022-09-17T08:11:14;15.80;;;3.00;;
3321;SDS011;1673;51.388;7.086;2022-09-17T08:14:04;13.68;;;2.80;;
3321;SDS011;1673;51.388;7.086;2022-09-17T08:16:34;10.80;;;2.70;;
3321;SDS011;1673;51.388;7.086;2022-09-17T08:19:06;9.68;;;2.40;;
3321;SDS011;1673;51.388;7.086;2022-09-17T08:21:37;11.00;;;2.80;;
3321;SDS011;1673;51.388;7.086;2022-09-17T08:24:06;13.43;;;2.78;;
3321;SDS011;1673;51.388;7.086;2022-09-17T08:26:36;15.38;;;3.13;;
3321;SDS011;1673;51.388;7.086;2022-09-17T08:29:06;16.40;;;2.90;;
3321;SDS011;1673;51.388;7.086;2022-09-17T08:31:36;10.00;;;2.33;;
3321;SDS011;1673;51.388;7.086;2022-09-17T08:34:09;8.95;;;2.00;;
3321;SDS011;1673;51.388;7.086;2022-09-17T08:36:39;11.82;;;2.72;;
3321;SDS011;1673;51.388;7.086;2022-09-17T08:39:08;6.82;;;2.10;;
3321;SDS011;1673;51.388;7.086;2022-09-17T08:41:44;13.18;;;2.38;;
3321;SDS011;1673;51.388;7.086;2022-09-17T08:44:22;12.68;;;2.10;;
3321;SDS011;1673;51.388;7.086;2022-09-17T08:46:57;9.98;;;2.55;;
3321;SDS011;1673;51.388;7.086;2022-09-17T08:49:34;14.10;;;2.47;;
3321;SDS011;1673;51.388;7.086;2022-09-17T08:52:18;7.95;;;2.80;;
3321;SDS011;1673;51.388;7.086;2022-09-17T08:54:59;10.93;;;3.38;;
3321;SDS011;1673;51.388;7.086;2022-09-17T08:57:38;12.75;;;3.40;;
3321;SDS011;1673;51.388;7.086;2022-09-17T09:00:15;18.30;;;3.50;;
3321;SDS011;1673;51.388;7.086;2022-09-17T12:58:06;4.10;;;1.10;;
3321;SDS011;1673;51.388;7.086;2022-09-17T13:00:41;5.10;;;1.00;;
3321;SDS011;1673;51.388;7.086;2022-09-17T13:03:16;5.35;;;0.82;;
3321;SDS011;1673;51.388;7.086;2022-09-17T13:05:59;4.30;;;0.90;;
3321;SDS011;1673;51.388;7.086;2022-09-17T13:11:53;2.20;;;0.70;;
3321;SDS011;1673;51.388;7.086;2022-09-17T13:14:36;5.30;;;0.80;;
3321;SDS011;1673;51.388;7.086;2022-09-17T13:17:18;3.45;;;0.65;;
3321;SDS011;1673;51.388;7.086;2022-09-17T13:19:55;5.17;;;0.83;;
3321;SDS011;1673;51.388;7.086;2022-09-17T13:22:30;5.07;;;1.10;;
3321;SDS011;1673;51.388;7.086;2022-09-17T13:25:01;3.55;;;0.90;;
3321;SDS011;1673;51.388;7.086;2022-09-17T13:27:32;4.50;;;1.00;;
3321;SDS011;1673;51.388;7.086;2022-09-17T13:30:06;4.43;;;0.95;;
3321;SDS011;1673;51.388;7.086;2022-09-17T13:32:44;4.60;;;1.05;;
3321;SDS011;1673;51.388;7.086;2022-09-17T13:38:14;4.10;;;1.40;;
3321;SDS011;1673;51.388;7.086;2022-09-17T13:40:49;6.30;;;1.30;;
3321;SDS011;1673;51.388;7.086;2022-09-17T13:43:20;8.77;;;1.40;;
3321;SDS011;1673;51.388;7.086;2022-09-17T13:48:45;6.50;;;1.50;;
3321;SDS011;1673;51.388;7.086;2022-09-17T13:54:18;9.93;;;1.70;;
3321;SDS011;1673;51.388;7.086;2022-09-17T13:56:52;11.47;;;2.17;;
3321;SDS011;1673;51.388;7.086;2022-09-17T13:59:33;14.23;;;2.60;;
3321;SDS011;1673;51.388;7.086;2022-09-17T14:46:18;4.40;;;1.35;;
3321;SDS011;1673;51.388;7.086;2022-09-17T14:48:52;6.75;;;1.50;;
3321;SDS011;1673;51.388;7.086;2022-09-17T14:51:26;8.50;;;2.00;;
3321;SDS011;1673;51.388;7.086;2022-09-17T14:56:55;7.88;;;2.33;;
3321;SDS011;1673;51.388;7.086;2022-09-17T14:59:32;12.02;;;2.50;;
3321;SDS011;1673;51.388;7.086;2022-09-17T15:05:00;10.88;;;2.70;;
3321;SDS011;1673;51.388;7.086;2022-09-17T15:07:31;11.20;;;2.25;;
3321;SDS011;1673;51.388;7.086;2022-09-17T15:10:07;8.43;;;2.30;;
3321;SDS011;1673;51.388;7.086;2022-09-17T15:12:41;5.75;;;2.17;;
3321;SDS011;1673;51.388;7.086;2022-09-17T15:15:14;7.70;;;2.20;;
3321;SDS011;1673;51.388;7.086;2022-09-17T15:17:46;10.30;;;2.00;;
3321;SDS011;1673;51.388;7.086;2022-09-17T15:20:20;8.15;;;2.00;;
3321;SDS011;1673;51.388;7.086;2022-09-17T15:22:53;9.52;;;2.30;;
3321;SDS011;1673;51.388;7.086;2022-09-17T15:25:24;9.38;;;1.98;;
3321;SDS011;1673;51.388;7.086;2022-09-17T15:27:57;11.65;;;2.33;;
3321;SDS011;1673;51.388;7.086;2022-09-17T15:30:33;9.82;;;1.90;;
3321;SDS011;1673;51.388;7.086;2022-09-17T15:33:03;6.95;;;1.80;;
3321;SDS011;1673;51.388;7.086;2022-09-17T15:35:40;12.35;;;2.50;;
3321;SDS011;1673;51.388;7.086;2022-09-17T15:38:20;9.00;;;2.47;;
3321;SDS011;1673;51.388;7.086;2022-09-17T15:40:53;9.23;;;2.00;;
3321;SDS011;1673;51.388;7.086;2022-09-17T15:43:24;8.25;;;1.70;;
3321;SDS011;1673;51.388;7.086;2022-09-17T15:45:55;8.90;;;1.77;;
3321;SDS011;1673;51.388;7.086;2022-09-17T15:48:33;11.07;;;1.50;;
3321;SDS011;1673;51.388;7.086;2022-09-17T15:51:14;8.13;;;1.40;;
3321;SDS011;1673;51.388;7.086;2022-09-17T15:53:52;7.22;;;1.70;;
3321;SDS011;1673;51.388;7.086;2022-09-17T15:56:23;4.35;;;1.05;;
3321;SDS011;1673;51.388;7.086;2022-09-17T15:58:55;5.13;;;1.00;;
3321;SDS011;1673;51.388;7.086;2022-09-17T16:04:22;7.30;;;1.40;;
3321;SDS011;1673;51.388;7.086;2022-09-17T16:09:58;5.57;;;1.17;;
3321;SDS011;1673;51.388;7.086;2022-09-17T16:12:27;2.75;;;1.10;;
3321;SDS011;1673;51.388;7.086;2022-09-17T16:14:57;3.83;;;1.10;;
3321;SDS011;1673;51.388;7.086;2022-09-17T16:17:29;3.65;;;1.20;;
3321;SDS011;1673;51.388;7.086;2022-09-17T16:20:12;6.00;;;1.00;;
3321;SDS011;1673;51.388;7.086;2022-09-17T16:22:46;4.03;;;1.20;;
3321;SDS011;1673;51.388;7.086;2022-09-17T16:25:16;5.80;;;1.63;;
3321;SDS011;1673;51.388;7.086;2022-09-17T16:27:47;7.32;;;1.40;;
3321;SDS011;1673;51.388;7.086;2022-09-17T16:30:19;8.10;;;1.40;;
3321;SDS011;1673;51.388;7.086;2022-09-17T16:32:50;48.60;;;25.77;;
3321;SDS011;1673;51.388;7.086;2022-09-17T16:35:20;52.70;;;30.00;;
3321;SDS011;1673;51.388;7.086;2022-09-17T16:37:54;30.23;;;18.92;;
3321;SDS011;1673;51.388;7.086;2022-09-17T16:40:24;13.90;;;7.15;;
3321;SDS011;1673;51.388;7.086;2022-09-17T16:42:58;9.10;;;3.88;;
3321;SDS011;1673;51.388;7.086;2022-09-17T16:45:28;4.70;;;2.40;;
3321;SDS011;1673;51.388;7.086;2022-09-17T16:47:58;5.60;;;1.77;;
3321;SDS011;1673;51.388;7.086;2022-09-17T16:50:28;4.03;;;0.90;;
3321;SDS011;1673;51.388;7.086;2022-09-17T16:53:01;4.70;;;1.20;;
3321;SDS011;1673;51.388;7.086;2022-09-17T16:55:31;4.55;;;1.30;;
3321;SDS011;1673;51.388;7.086;2022-09-17T16:58:01;3.63;;;1.00;;
3321;SDS011;1673;51.388;7.086;2022-09-17T17:00:30;3.40;;;1.20;;
3321;SDS011;1673;51.388;7.086;2022-09-17T17:03:02;3.80;;;1.33;;
3321;SDS011;1673;51.388;7.086;2022-09-17T17:05:34;3.20;;;0.93;;
3321;SDS011;1673;51.388;7.086;2022-09-17T17:08:07;8.10;;;1.52;;
3321;SDS011;1673;51.388;7.086;2022-09-17T17:10:39;3.42;;;1.40;;
3321;SDS011;1673;51.388;7.086;2022-09-17T17:13:09;5.55;;;1.20;;
3321;SDS011;1673;51.388;7.086;2022-09-17T17:15:39;3.50;;;1.10;;
3321;SDS011;1673;51.388;7.086;2022-09-17T17:18:09;6.57;;;1.52;;
3321;SDS011;1673;51.388;7.086;2022-09-17T17:20:39;6.57;;;1.53;;
3321;SDS011;1673;51.388;7.086;2022-09-17T17:23:11;7.20;;;1.80;;
3321;SDS011;1673;51.388;7.086;2022-09-17T17:25:40;6.70;;;1.73;;
3321;SDS011;1673;51.388;7.086;2022-09-17T17:28:10;6.40;;;1.88;;
3321;SDS011;1673;51.388;7.086;2022-09-17T17:30:40;5.97;;;1.60;;
3321;SDS011;1673;51.388;7.086;2022-09-17T17:33:10;5.47;;;2.28;;
3321;SDS011;1673;51.388;7.086;2022-09-17T17:35:39;8.35;;;2.00;;
3321;SDS011;1673;51.388;7.086;2022-09-17T17:38:13;6.40;;;1.60;;
3321;SDS011;1673;51.388;7.086;2022-09-17T17:40:45;9.95;;;1.88;;
3321;SDS011;1673;51.388;7.086;2022-09-17T17:43:14;6.88;;;1.67;;
3321;SDS011;1673;51.388;7.086;2022-09-17T17:45:44;5.85;;;2.28;;
3321;SDS011;1673;51.388;7.086;2022-09-17T17:48:14;7.35;;;2.10;;
3321;SDS011;1673;51.388;7.086;2022-09-17T17:50:43;9.83;;;2.30;;
3321;SDS011;1673;51.388;7.086;2022-09-17T17:53:16;11.40;;;2.10;;
3321;SDS011;1673;51.388;7.086;2022-09-17T17:55:54;7.05;;;2.10;;
3321;SDS011;1673;51.388;7.086;2022-09-17T17:58:24;9.15;;;2.17;;
3321;SDS011;1673;51.388;7.086;2022-09-17T18:00:54;9.10;;;2.40;;
3321;SDS011;1673;51.388;7.086;2022-09-17T18:03:24;7.53;;;2.50;;
3321;SDS011;1673;51.388;7.086;2022-09-17T18:05:54;11.13;;;2.13;;
3321;SDS011;1673;51.388;7.086;2022-09-17T18:08:28;11.80;;;2.50;;
3321;SDS011;1673;51.388;7.086;2022-09-17T18:10:58;8.32;;;2.22;;
3321;SDS011;1673;51.388;7.086;2022-09-17T18:13:29;8.93;;;1.80;;
3321;SDS011;1673;51.388;7.086;2022-09-17T18:15:59;7.70;;;2.22;;
3321;SDS011;1673;51.388;7.086;2022-09-17T18:18:32;9.60;;;1.97;;
3321;SDS011;1673;51.388;7.086;2022-09-17T18:21:10;10.50;;;3.20;;
3321;SDS011;1673;51.388;7.086;2022-09-17T18:23:43;9.63;;;2.30;;
3321;SDS011;1673;51.388;7.086;2022-09-17T18:26:14;7.03;;;2.85;;
3321;SDS011;1673;51.388;7.086;2022-09-17T18:28:44;10.90;;;3.20;;
3321;SDS011;1673;51.388;7.086;2022-09-17T18:31:16;7.95;;;2.60;;
3321;SDS011;1673;51.388;7.086;2022-09-17T18:33:49;9.52;;;2.75;;
3321;SDS011;1673;51.388;7.086;2022-09-17T18:36:21;10.05;;;2.90;;
3321;SDS011;1673;51.388;7.086;2022-09-17T18:38:54;15.38;;;3.00;;
3321;SDS011;1673;51.388;7.086;2022-09-17T18:41:47;9.27;;;2.90;;
3321;SDS011;1673;51.388;7.086;2022-09-17T18:44:16;13.57;;;2.75;;
3321;SDS011;1673;51.388;7.086;2022-09-17T18:46:47;13.38;;;2.80;;
3321;SDS011;1673;51.388;7.086;2022-09-17T18:49:17;11.88;;;3.47;;
3321;SDS011;1673;51.388;7.086;2022-09-17T18:51:47;12.32;;;3.13;;
3321;SDS011;1673;51.388;7.086;2022-09-17T18:54:19;14.55;;;3.30;;
3321;SDS011;1673;51.388;7.086;2022-09-17T18:56:49;13.70;;;3.17;;
3321;SDS011;1673;51.388;7.086;2022-09-17T18:59:18;14.43;;;3.53;;
3321;SDS011;1673;51.388;7.086;2022-09-17T19:01:48;13.90;;;3.53;;
3321;SDS011;1673;51.388;7.086;2022-09-17T19:04:18;13.38;;;3.97;;
3321;SDS011;1673;51.388;7.086;2022-09-17T19:06:48;16.00;;;3.60;;
3321;SDS011;1673;51.388;7.086;2022-09-17T19:09:20;16.63;;;4.43;;
3321;SDS011;1673;51.388;7.086;2022-09-17T19:11:50;12.23;;;3.30;;
3321;SDS011;1673;51.388;7.086;2022-09-17T19:14:19;18.97;;;4.70;;
3321;SDS011;1673;51.388;7.086;2022-09-17T19:16:49;15.55;;;3.42;;
3321;SDS011;1673;51.388;7.086;2022-09-17T19:19:20;10.27;;;3.33;;
3321;SDS011;1673;51.388;7.086;2022-09-17T19:21:50;16.70;;;3.97;;
3321;SDS011;1673;51.388;7.086;2022-09-17T19:24:22;13.63;;;3.88;;
3321;SDS011;1673;51.388;7.086;2022-09-17T19:26:52;22.75;;;4.85;;
3321;SDS011;1673;51.388;7.086;2022-09-17T19:29:21;15.43;;;4.10;;
3321;SDS011;1673;51.388;7.086;2022-09-17T19:31:51;20.47;;;5.80;;
3321;SDS011;1673;51.388;7.086;2022-09-17T19:34:21;22.13;;;4.70;;
3321;SDS011;1673;51.388;7.086;2022-09-17T19:36:51;14.65;;;4.47;;
3321;SDS011;1673;51.388;7.086;2022-09-17T19:39:23;14.32;;;3.83;;
3321;SDS011;1673;51.388;7.086;2022-09-17T19:41:53;20.88;;;4.70;;
3321;SDS011;1673;51.388;7.086;2022-09-17T19:44:26;12.80;;;3.70;;
3321;SDS011;1673;51.388;7.086;2022-09-17T19:46:56;14.90;;;3.08;;
3321;SDS011;1673;51.388;7.086;2022-09-17T19:49:26;16.30;;;3.80;;
3321;SDS011;1673;51.388;7.086;2022-09-17T19:51:57;16.65;;;4.20;;
3321;SDS011;1673;51.388;7.086;2022-09-17T19:54:29;11.98;;;3.40;;
3321;SDS011;1673;51.388;7.086;2022-09-17T19:56:59;8.95;;;2.65;;
3321;SDS011;1673;51.388;7.086;2022-09-17T19:59:29;14.52;;;3.00;;
3321;SDS011;1673;51.388;7.086;2022-09-17T20:01:59;17.45;;;3.38;;
3321;SDS011;1673;51.388;7.086;2022-09-17T20:04:29;17.38;;;3.40;;
3321;SDS011;1673;51.388;7.086;2022-09-17T20:06:59;20.52;;;3.78;;
3321;SDS011;1673;51.388;7.086;2022-09-17T20:09:32;14.95;;;3.40;;
3321;SDS011;1673;51.388;7.086;2022-09-17T20:12:02;15.30;;;3.65;;
3321;SDS011;1673;51.388;7.086;2022-09-17T20:14:32;16.17;;;3.38;;
3321;SDS011;1673;51.388;7.086;2022-09-17T20:17:02;18.85;;;3.42;;
3321;SDS011;1673;51.388;7.086;2022-09-17T20:19:32;18.15;;;3.40;;
3321;SDS011;1673;51.388;7.086;2022-09-17T20:22:01;22.50;;;5.07;;
3321;SDS011;1673;51.388;7.086;2022-09-17T20:24:34;18.52;;;3.63;;
3321;SDS011;1673;51.388;7.086;2022-09-17T20:27:03;23.05;;;4.70;;
3321;SDS011;1673;51.388;7.086;2022-09-17T20:29:33;14.30;;;4.85;;
3321;SDS011;1673;51.388;7.086;2022-09-17T20:32:03;18.77;;;4.67;;
3321;SDS011;1673;51.388;7.086;2022-09-17T20:34:32;9.57;;;3.40;;
3321;SDS011;1673;51.388;7.086;2022-09-17T20:37:02;11.00;;;3.60;;
3321;SDS011;1673;51.388;7.086;2022-09-17T20:39:41;10.80;;;3.20;;
3321;SDS011;1673;51.388;7.086;2022-09-17T20:42:10;13.50;;;2.97;;
3321;SDS011;1673;51.388;7.086;2022-09-17T20:44:40;17.52;;;3.40;;
3321;SDS011;1673;51.388;7.086;2022-09-17T20:47:09;22.95;;;3.80;;
3321;SDS011;1673;51.388;7.086;2022-09-17T20:49:39;14.73;;;3.10;;
3321;SDS011;1673;51.388;7.086;2022-09-17T20:52:09;11.80;;;3.63;;